• Join FlightAware (Why Join?)
  • Login
  • US Flag 
08:54PM EDT


 

Airport Tracker/Info


-or-


 

Live Flight TrackerFlight Track Log ✈ N75ZM ✈ 10-Aug-2013 ✈ KYIP - KGDW

Flight Track Log - Related Links

Times and Time Zones

All times are in EDT time to prevent confusion due to time zone crossing. See the N75ZM flight status page for this flight to view local times or setup timezone preferences in your user account.

Time Position Orientation Groundspeed Altitude Reporting Facility
EDT Latitude Longitude Course Direction KTS MPH feet Rate Location/Type
09:12AM 42.2428 -83.5394 339° North 111 128 1,300  Level Cleveland Center
09:14AM 42.2706 -83.5942 304° West 121 139 2,900 1,080 Climbing Cleveland Center
09:15AM 42.2883 -83.6314 303° West 120 138 4,100 1,020 Climbing Cleveland Center
09:16AM 42.3256 -83.6472 343° North 118 136 5,100 900 Climbing Cleveland Center
09:17AM 42.3544 -83.6628 338° Northwest 120 138 6,000 480 Climbing Cleveland Center
09:18AM 42.4373 -83.6354 339° North  Level FlightAware Approximate
09:18AM 42.3914 -83.6842 337° Northwest 136 157 6,100  Level Cleveland Center
09:19AM 42.4283 -83.7003 342° North 158 182 6,100  Level Cleveland Center
09:20AM 42.4675 -83.7217 338° Northwest 150 173 6,100  Level Cleveland Center
09:21AM 42.5064 -83.7406 340° North 151 174 6,100  Level Cleveland Center
09:23AM 42.5673 -83.7572 349° North  Level FlightAware Approximate
09:30AM 42.8252 -83.8390 339° North  Level FlightAware Approximate
09:31AM 42.8599 -83.8576 339° North  Level FlightAware Approximate
09:32AM 42.8946 -83.8762 339° North  Level FlightAware Approximate
09:33AM 42.9293 -83.8949 339° North  Level FlightAware Approximate
09:34AM 42.9640 -83.9135 339° North  Level FlightAware Approximate
09:35AM 42.9987 -83.9322 339° North  Level FlightAware Approximate
09:36AM 43.0334 -83.9509 339° North  Level FlightAware Approximate
09:37AM 43.0681 -83.9696 338° Northwest  Level FlightAware Approximate
09:38AM 43.1028 -83.9884 338° Northwest  Level FlightAware Approximate
09:39AM 43.1375 -84.0071 338° Northwest  Level FlightAware Approximate
09:40AM 43.1722 -84.0259 338° Northwest  Level FlightAware Approximate
09:41AM 43.2069 -84.0447 338° Northwest  Level FlightAware Approximate
09:42AM 43.2416 -84.0637 338° Northwest  Level FlightAware Approximate
09:43AM 43.2762 -84.0828 338° Northwest  Level FlightAware Approximate
09:44AM 43.3108 -84.1019 338° Northwest  Level FlightAware Approximate
09:45AM 43.3454 -84.1211 338° Northwest  Level FlightAware Approximate
09:46AM 43.3800 -84.1403 338° Northwest  Level FlightAware Approximate
09:47AM 43.4146 -84.1594 338° Northwest  Level FlightAware Approximate
09:48AM 43.4492 -84.1787 338° Northwest  Level FlightAware Approximate
09:49AM 43.4838 -84.1979 338° Northwest  Level FlightAware Approximate
09:50AM 43.5183 -84.2171 338° Northwest  Level FlightAware Approximate
09:51AM 43.5529 -84.2364 338° Northwest  Level FlightAware Approximate
09:52AM 43.5875 -84.2557 338° Northwest  Level FlightAware Approximate
09:53AM 43.6221 -84.2750 338° Northwest  Level FlightAware Approximate
09:54AM 43.6567 -84.2944 338° Northwest  Level FlightAware Approximate
09:55AM 43.6916 -84.3124 340° North  Level FlightAware Approximate
09:56AM 43.7267 -84.3300 340° North  Level FlightAware Approximate
09:57AM 43.7612 -84.3495 337° Northwest  Level FlightAware Approximate